Time;durP1;ratioP1;P1;durP2;ratioP2;P2;SDS_P1;SDS_P2;PMS_P1;PMS_P2;Temp;Humidity;BMP_temperature;BMP_pressure;BME280_temperature;BME280_humidity;BME280_pressure;Samples;Min_cycle;Max_cycle;Signal;HPM_P1;HPM_P2
2021/10/23 00:02:07;;;;;;;;;17.50;11.75;;;;;11.56;74.76;102416.50;5033593;28;45521;-71
2021/10/23 00:04:33;;;;;;;;;16.75;12.75;;;;;11.55;74.67;102423.53;5034495;28;45388;-71
2021/10/23 00:06:58;;;;;;;;;13.25;11.25;;;;;11.61;74.86;102420.78;5033490;28;45708;-71
2021/10/23 00:09:25;;;;;;;;;16.25;13.50;;;;;11.64;74.67;102423.34;5032982;28;46483;-71
2021/10/23 00:11:50;;;;;;;;;13.25;13.25;;;;;11.65;74.76;102419.81;5034290;28;45522;-71
2021/10/23 00:14:16;;;;;;;;;16.25;14.00;;;;;11.65;74.63;102414.56;5033719;28;45543;-71
2021/10/23 00:16:41;;;;;;;;;15.50;13.75;;;;;11.67;74.85;102414.50;5033131;28;45376;-71
2021/10/23 00:19:07;;;;;;;;;12.00;12.00;;;;;11.68;74.78;102419.75;5034646;28;45513;-71
2021/10/23 00:21:32;;;;;;;;;10.50;10.25;;;;;11.67;74.80;102419.78;5033886;28;45390;-71
2021/10/23 00:23:57;;;;;;;;;19.50;15.25;;;;;11.72;74.86;102424.03;5034546;28;45314;-71
2021/10/23 00:26:23;;;;;;;;;17.75;15.75;;;;;11.75;74.80;102420.50;5031866;28;45640;-71
2021/10/23 00:28:48;;;;;;;;;12.75;12.50;;;;;11.76;74.96;102423.09;5034457;28;45375;-71
2021/10/23 00:31:14;;;;;;;;;13.50;11.50;;;;;11.80;74.89;102428.28;5033488;28;45479;-71
2021/10/23 00:33:39;;;;;;;;;14.00;12.00;;;;;11.80;74.80;102423.00;5033715;28;45621;-71
2021/10/23 00:36:05;;;;;;;;;13.25;11.00;;;;;11.82;74.61;102424.75;5033682;28;45523;-71
2021/10/23 00:38:31;;;;;;;;;14.25;12.00;;;;;11.84;74.68;102427.34;5032984;28;46367;-71
2021/10/23 00:40:56;;;;;;;;;12.50;11.00;;;;;11.85;74.60;102423.81;5032877;28;45987;-71
2021/10/23 00:43:22;;;;;;;;;10.00;8.75;;;;;11.86;74.43;102428.22;5034113;28;45313;-71
2021/10/23 00:45:47;;;;;;;;;8.75;8.75;;;;;11.83;74.11;102423.00;5033234;28;45493;-71
2021/10/23 00:48:13;;;;;;;;;11.50;9.00;;;;;11.89;74.36;102428.13;5013454;28;47188;-71
2021/10/23 00:50:38;;;;;;;;;13.00;10.75;;;;;11.91;74.07;102431.63;5033522;28;45474;-72
2021/10/23 00:53:04;;;;;;;;;10.50;8.25;;;;;11.93;74.36;102430.66;5033767;28;45805;-71
2021/10/23 00:55:29;;;;;;;;;9.25;8.00;;;;;11.95;74.20;102430.63;5033712;28;45446;-71
2021/10/23 00:57:55;;;;;;;;;11.00;8.00;;;;;11.93;73.89;102422.75;5033755;28;45625;-71
2021/10/23 01:00:21;;;;;;;;;8.25;5.75;;;;;11.98;73.64;102422.66;5032282;28;45482;-71
2021/10/23 01:02:46;;;;;;;;;6.50;4.50;;;;;12.00;74.31;102432.25;5033162;28;45385;-71
2021/10/23 01:05:11;;;;;;;;;6.25;5.00;;;;;12.01;74.11;102433.16;5033571;28;45400;-71
2021/10/23 01:07:37;;;;;;;;;7.50;5.50;;;;;12.03;73.88;102431.34;5032015;28;46040;-71
2021/10/23 01:10:05;;;;;;;;;8.00;7.75;;;;;12.05;73.78;102426.03;5033819;28;45526;-71
2021/10/23 01:12:31;;;;;;;;;11.25;7.75;;;;;12.00;73.76;102408.53;5032160;28;49893;-71
2021/10/23 01:14:57;;;;;;;;;8.75;5.00;;;;;11.98;73.78;102410.34;5032408;28;45332;-71
2021/10/23 01:17:23;;;;;;;;;7.75;6.00;;;;;12.05;73.70;102428.66;5032739;28;46111;-71
2021/10/23 01:19:52;;;;;;;;;11.00;8.25;;;;;12.10;73.53;102429.41;5033650;28;45596;-71
2021/10/23 01:22:29;;;;;;;;;8.00;7.50;;;;;12.11;73.72;102433.78;5032836;28;45442;-71
2021/10/23 01:24:55;;;;;;;;;11.25;9.00;;;;;12.06;73.60;102415.47;5033794;28;45344;-71
2021/10/23 01:27:21;;;;;;;;;16.75;12.00;;;;;12.11;73.51;102429.41;5032850;28;46363;-71
2021/10/23 01:29:46;;;;;;;;;13.50;12.00;;;;;12.05;73.51;102413.72;5032159;28;45907;-71
2021/10/23 01:32:12;;;;;;;;;13.75;12.75;;;;;12.14;73.21;102429.31;5032844;28;47847;-71
2021/10/23 01:34:37;;;;;;;;;18.75;15.00;;;;;12.15;73.52;102417.88;5033345;28;45418;-71
2021/10/23 01:37:03;;;;;;;;;10.50;8.75;;;;;12.09;73.61;102404.84;5033364;28;45523;-71
2021/10/23 01:39:32;;;;;;;;;9.25;8.00;;;;;12.08;73.50;102413.66;5032703;28;50190;-71
2021/10/23 01:41:57;;;;;;;;;8.50;8.00;;;;;11.93;73.61;102398.19;5032475;28;45259;-71
2021/10/23 01:44:26;;;;;;;;;6.25;5.00;;;;;12.00;73.85;102408.53;5036117;28;45348;-71
2021/10/23 01:46:51;;;;;;;;;7.25;6.25;;;;;11.91;73.93;102400.88;5035585;28;46058;-71
2021/10/23 01:49:17;;;;;;;;;9.75;7.25;;;;;11.83;74.03;102394.00;5037235;28;45503;-71
2021/10/23 01:51:42;;;;;;;;;9.25;5.75;;;;;11.66;74.01;102378.56;5036690;28;45281;-71
2021/10/23 01:54:10;;;;;;;;;9.50;5.75;;;;;11.80;74.16;102408.09;5035185;28;45371;-71
2021/10/23 01:56:38;;;;;;;;;12.25;7.25;;;;;11.75;74.43;102410.81;5034832;28;45423;-71
2021/10/23 01:59:04;;;;;;;;;8.50;8.50;;;;;11.64;75.17;102390.84;5036266;28;45498;-71
2021/10/23 02:01:30;;;;;;;;;10.75;9.00;;;;;11.66;74.58;102396.97;5035711;28;45691;-71
2021/10/23 02:03:55;;;;;;;;;7.75;7.75;;;;;11.61;74.68;102397.06;5036360;28;45312;-71
2021/10/23 02:06:20;;;;;;;;;8.75;7.00;;;;;11.58;74.62;102393.63;5035825;28;45783;-71
2021/10/23 02:08:46;;;;;;;;;8.75;7.75;;;;;11.52;75.01;102392.00;5035591;28;49573;-71
2021/10/23 02:11:11;;;;;;;;;9.00;7.25;;;;;11.48;74.64;102391.22;5036536;28;45557;-71
2021/10/23 02:13:37;;;;;;;;;8.75;8.75;;;;;11.46;75.21;102394.75;5035916;28;45478;-71
2021/10/23 02:16:03;;;;;;;;;10.50;9.50;;;;;11.40;75.09;102376.44;5035974;28;45400;-71
2021/10/23 02:18:28;;;;;;;;;7.00;7.00;;;;;11.45;75.12;102395.66;5035896;28;45627;-71
2021/10/23 02:20:55;;;;;;;;;9.75;8.50;;;;;11.13;75.26;102338.41;5035629;28;45597;-71
2021/10/23 02:23:21;;;;;;;;;9.75;8.25;;;;;11.45;75.09;102390.38;5035641;28;45510;-71
2021/10/23 02:25:46;;;;;;;;;8.75;7.50;;;;;11.29;75.35;102354.75;5035760;28;46033;-71
2021/10/23 02:28:11;;;;;;;;;11.75;8.50;;;;;11.47;75.45;102378.91;5036510;28;45396;-71
2021/10/23 02:30:37;;;;;;;;;9.75;8.25;;;;;11.49;75.56;102371.00;5035975;28;45505;-71
2021/10/23 02:33:02;;;;;;;;;9.50;7.50;;;;;11.52;75.45;102385.84;5035853;28;45445;-71
2021/10/23 02:35:27;;;;;;;;;10.50;9.00;;;;;11.53;75.47;102374.41;5034989;28;45914;-71
2021/10/23 02:37:53;;;;;;;;;11.50;10.25;;;;;11.52;75.56;102370.94;5034996;28;45373;-71
2021/10/23 02:40:18;;;;;;;;;11.25;9.50;;;;;11.55;75.45;102377.91;5035161;28;45483;-71
2021/10/23 02:42:44;;;;;;;;;10.75;10.00;;;;;11.56;75.50;102377.00;5035971;28;45260;-71
2021/10/23 02:45:09;;;;;;;;;9.25;8.75;;;;;11.56;75.45;102379.63;5035124;28;46071;-71
2021/10/23 02:47:35;;;;;;;;;14.00;9.00;;;;;11.56;75.54;102379.63;5035837;28;45503;-71
2021/10/23 02:50:02;;;;;;;;;12.25;10.25;;;;;11.47;75.75;102359.63;5035572;28;45559;-71
2021/10/23 02:52:27;;;;;;;;;10.25;9.50;;;;;11.54;75.54;102377.03;5034649;28;45442;-71
2021/10/23 02:54:52;;;;;;;;;11.25;9.75;;;;;11.54;75.83;102371.78;5034639;28;45499;-71
2021/10/23 02:57:18;;;;;;;;;11.00;8.25;;;;;11.61;75.75;102377.78;5034590;28;45443;-71
2021/10/23 02:59:44;;;;;;;;;12.00;9.25;;;;;11.63;75.74;102386.50;5034812;28;45537;-71
2021/10/23 03:02:10;;;;;;;;;14.25;11.00;;;;;11.62;75.82;102384.78;5035440;28;45521;-71
2021/10/23 03:04:35;;;;;;;;;20.00;11.00;;;;;11.56;75.65;102375.22;5035207;28;45333;-71
2021/10/23 03:07:01;;;;;;;;;17.75;14.75;;;;;11.55;75.68;102373.50;5035996;28;45856;-71
2021/10/23 03:09:26;;;;;;;;;14.00;13.50;;;;;11.65;75.68;102395.25;5034403;28;45501;-71
2021/10/23 03:11:52;;;;;;;;;13.00;12.25;;;;;11.48;75.69;102370.16;5033948;28;45542;-71
2021/10/23 03:14:17;;;;;;;;;13.75;11.00;;;;;11.65;75.75;102390.84;5034827;28;45911;-71
2021/10/23 03:16:42;;;;;;;;;18.25;16.00;;;;;11.66;75.81;102395.22;5034124;28;45415;-71
2021/10/23 03:19:08;;;;;;;;;15.00;13.75;;;;;11.62;75.53;102388.28;5035373;28;45293;-71
2021/10/23 03:21:33;;;;;;;;;15.00;11.25;;;;;11.68;75.97;102390.78;5035540;28;45410;-71
2021/10/23 03:23:58;;;;;;;;;16.00;12.25;;;;;11.67;75.90;102391.66;5015727;28;47179;-71
2021/10/23 03:26:24;;;;;;;;;15.00;14.00;;;;;11.63;76.01;102376.81;5032484;28;48399;-71
2021/10/23 03:28:49;;;;;;;;;15.00;11.50;;;;;11.60;76.06;102374.28;5034732;28;45458;-71
2021/10/23 03:31:14;;;;;;;;;12.00;11.00;;;;;11.66;76.04;102386.44;5035643;28;45454;-71
2021/10/23 03:33:40;;;;;;;;;18.50;14.75;;;;;11.68;75.88;102388.13;5034446;28;45369;-71
2021/10/23 03:36:05;;;;;;;;;17.00;11.75;;;;;11.60;76.14;102373.41;5034746;28;45439;-71
2021/10/23 03:38:32;;;;;;;;;15.25;14.75;;;;;11.65;76.17;102382.94;5016701;28;45515;-71
2021/10/23 03:40:57;;;;;;;;;12.50;10.00;;;;;11.66;76.25;102382.03;5034222;28;47427;-71
2021/10/23 03:43:23;;;;;;;;;16.75;12.25;;;;;11.69;76.13;102378.47;5033846;28;46633;-71
2021/10/23 03:45:48;;;;;;;;;21.00;15.50;;;;;11.62;76.44;102377.72;5033450;28;45432;-71
2021/10/23 03:48:14;;;;;;;;;15.75;15.25;;;;;11.70;76.38;102382.84;5034601;28;45515;-71
2021/10/23 03:50:39;;;;;;;;;12.50;11.75;;;;;11.59;76.35;102367.28;5015196;28;45340;-71
2021/10/23 03:53:04;;;;;;;;;12.25;11.00;;;;;11.60;76.42;102361.13;5033207;28;45613;-71
2021/10/23 03:55:30;;;;;;;;;12.25;12.25;;;;;11.69;76.53;102374.09;5033938;28;45720;-71
2021/10/23 03:57:55;;;;;;;;;11.25;9.75;;;;;11.70;76.49;102375.81;5034412;28;45462;-71
2021/10/23 04:00:20;;;;;;;;;15.25;15.00;;;;;11.70;76.40;102377.59;5034284;28;45521;-71
2021/10/23 04:02:46;;;;;;;;;12.50;10.25;;;;;11.71;76.65;102374.91;5034438;28;45463;-71
2021/10/23 04:05:12;;;;;;;;;14.50;11.00;;;;;11.70;76.76;102378.44;5034263;28;45518;-71
2021/10/23 04:07:37;;;;;;;;;12.75;11.00;;;;;11.72;76.70;102379.28;5034275;28;45478;-71
2021/10/23 04:10:04;;;;;;;;;16.75;14.25;;;;;11.71;76.78;102372.28;5034437;28;45486;-71
2021/10/23 04:12:30;;;;;;;;;16.50;13.25;;;;;11.71;76.66;102374.06;5033363;28;46035;-71
2021/10/23 04:14:55;;;;;;;;;17.75;13.50;;;;;11.67;76.55;102365.34;5015932;28;45489;-71
2021/10/23 04:17:21;;;;;;;;;13.50;11.00;;;;;11.56;76.47;102346.28;5033682;28;45801;-71
2021/10/23 04:19:46;;;;;;;;;16.00;12.25;;;;;11.71;76.37;102374.06;5034357;28;45676;-71
2021/10/23 04:22:12;;;;;;;;;15.25;12.25;;;;;11.67;76.71;102369.75;5033327;28;46307;-71
2021/10/23 04:24:38;;;;;;;;;10.50;9.75;;;;;11.68;76.80;102367.06;5033898;28;45820;-71
2021/10/23 04:27:03;;;;;;;;;13.00;12.00;;;;;11.72;76.41;102379.28;5033664;28;45293;-71
2021/10/23 04:29:29;;;;;;;;;15.75;11.75;;;;;11.72;76.47;102373.16;5032808;28;45466;-71
2021/10/23 04:31:54;;;;;;;;;16.50;13.25;;;;;11.72;76.56;102383.69;5033255;28;45455;-71
2021/10/23 04:34:20;;;;;;;;;19.50;15.50;;;;;11.71;76.62;102374.91;5033424;28;45351;-71
2021/10/23 04:36:45;;;;;;;;;14.50;14.00;;;;;11.72;76.64;102379.28;5033311;28;45417;-71
2021/10/23 04:39:11;;;;;;;;;15.75;11.25;;;;;11.69;76.73;102375.81;5033606;28;45427;-71
2021/10/23 04:41:37;;;;;;;;;16.50;12.00;;;;;11.73;76.73;102373.09;5033313;28;46224;-71
2021/10/23 04:44:03;;;;;;;;;16.00;12.00;;;;;11.73;76.34;102383.63;5033359;28;45289;-71
2021/10/23 04:46:28;;;;;;;;;16.75;12.50;;;;;11.72;76.16;102379.28;5033229;28;45402;-71
2021/10/23 04:48:53;;;;;;;;;16.50;14.25;;;;;11.75;76.16;102381.00;5034380;28;45520;-71
2021/10/23 04:51:19;;;;;;;;;14.75;10.75;;;;;11.76;76.22;102383.59;5033500;28;46169;-71
2021/10/23 04:53:44;;;;;;;;;16.25;10.50;;;;;11.73;76.16;102375.72;5032874;28;45332;-71
2021/10/23 04:56:09;;;;;;;;;17.75;15.75;;;;;11.77;75.77;102384.44;5033646;28;45311;-71
2021/10/23 04:58:38;;;;;;;;;15.00;12.50;;;;;11.76;75.82;102386.22;5033884;28;45360;-71
2021/10/23 05:01:04;;;;;;;;;16.75;11.75;;;;;11.68;75.67;102369.69;5033983;28;46193;-71
2021/10/23 05:03:30;;;;;;;;;12.75;12.75;;;;;11.77;75.60;102384.44;5033254;28;45526;-71
2021/10/23 05:05:55;;;;;;;;;18.00;12.00;;;;;11.77;75.67;102376.53;5031968;28;45602;-71
2021/10/23 05:08:20;;;;;;;;;12.50;11.00;;;;;11.75;75.80;102379.22;5033451;28;45273;-71
2021/10/23 05:10:47;;;;;;;;;21.75;13.50;;;;;11.77;75.80;102382.69;5033632;28;45360;-71
2021/10/23 05:13:13;;;;;;;;;15.50;14.00;;;;;11.76;75.92;102383.59;5033975;28;45832;-71
2021/10/23 05:15:38;;;;;;;;;10.25;10.25;;;;;11.75;76.24;102384.50;5032960;28;45542;-71
2021/10/23 05:18:04;;;;;;;;;18.25;14.50;;;;;11.62;76.19;102374.25;5034118;28;45582;-71
2021/10/23 05:20:29;;;;;;;;;14.00;12.00;;;;;11.71;76.43;102393.34;5035019;28;54528;-71
2021/10/23 05:22:54;;;;;;;;;13.25;12.75;;;;;11.71;76.15;102387.22;5034892;28;45562;-71
2021/10/23 05:25:20;;;;;;;;;17.50;12.25;;;;;11.68;76.16;102385.50;5037295;28;45475;-71
2021/10/23 05:27:45;;;;;;;;;15.75;14.75;;;;;11.72;76.54;102384.53;5037251;28;47793;-71
2021/10/23 05:30:11;;;;;;;;;10.25;10.25;;;;;11.72;76.42;102394.22;5036351;28;46177;-71
2021/10/23 05:32:37;;;;;;;;;14.25;11.00;;;;;11.69;76.33;102394.25;5036802;28;45368;-71
2021/10/23 05:35:02;;;;;;;;;18.25;13.00;;;;;11.66;76.29;102386.44;5035437;28;45429;-71
2021/10/23 05:37:28;;;;;;;;;18.25;15.00;;;;;11.69;76.26;102384.63;5035623;28;45293;-71
2021/10/23 05:39:53;;;;;;;;;13.75;11.25;;;;;11.66;76.44;102383.81;5036959;28;46119;-71
2021/10/23 05:42:19;;;;;;;;;18.50;13.25;;;;;11.66;76.05;102389.09;5036118;28;45478;-71
2021/10/23 05:44:44;;;;;;;;;15.00;11.00;;;;;11.64;76.23;102375.06;5036393;28;45454;-71
2021/10/23 05:47:10;;;;;;;;;17.00;13.75;;;;;11.67;76.13;102380.28;5036690;28;45392;-71
2021/10/23 05:49:36;;;;;;;;;15.25;12.75;;;;;11.68;76.57;102382.88;5035322;28;45474;-71
2021/10/23 05:52:01;;;;;;;;;16.00;12.75;;;;;11.74;76.30;102393.31;5036603;28;45814;-71
2021/10/23 05:54:27;;;;;;;;;14.75;12.50;;;;;11.65;76.81;102385.59;5035269;28;45494;-71
2021/10/23 05:56:53;;;;;;;;;13.75;11.50;;;;;11.54;76.67;102366.50;5035668;28;45485;-71
2021/10/23 05:59:18;;;;;;;;;17.75;11.00;;;;;11.68;76.42;102398.66;5033101;28;45806;-71
2021/10/23 06:01:45;;;;;;;;;11.00;9.50;;;;;11.68;76.44;102393.41;5036415;28;45324;-71
2021/10/23 06:04:11;;;;;;;;;12.75;11.25;;;;;11.73;76.33;102404.72;5036742;28;45524;-71
2021/10/23 06:06:38;;;;;;;;;15.75;11.75;;;;;11.74;76.15;102406.47;5036259;28;45402;-71
2021/10/23 06:09:04;;;;;;;;;14.00;12.25;;;;;11.74;76.19;102403.84;5035702;28;45624;-71
2021/10/23 06:11:30;;;;;;;;;11.75;11.00;;;;;11.68;76.41;102396.03;5035409;28;46051;-71
2021/10/23 06:13:58;;;;;;;;;14.25;11.75;;;;;11.65;76.46;102401.38;5036046;28;45541;-71
2021/10/23 06:16:23;;;;;;;;;18.75;14.75;;;;;11.75;76.49;102423.13;5036093;28;45545;-71
2021/10/23 06:18:49;;;;;;;;;14.50;10.00;;;;;11.75;76.46;102408.19;5035695;28;46177;-71
2021/10/23 06:21:15;;;;;;;;;10.25;9.25;;;;;11.75;76.47;102418.72;5035742;28;45407;-71
2021/10/23 06:23:40;;;;;;;;;15.00;10.25;;;;;11.72;76.10;102404.75;5035252;28;45492;-71
2021/10/23 06:26:06;;;;;;;;;11.50;10.75;;;;;11.74;76.20;102416.09;5035463;28;45446;-71
2021/10/23 06:28:36;;;;;;;;;16.75;12.00;;;;;11.76;76.32;102422.22;5035147;28;45883;-71
2021/10/23 06:31:01;;;;;;;;;19.75;15.25;;;;;11.59;76.37;102388.34;5033762;28;45376;-71
2021/10/23 06:33:27;;;;;;;;;16.50;13.50;;;;;11.68;76.34;102406.56;5035575;28;47664;-71
2021/10/23 06:35:52;;;;;;;;;14.75;12.25;;;;;11.74;76.35;102417.00;5035444;28;45433;-71
2021/10/23 06:38:17;;;;;;;;;11.75;10.75;;;;;11.82;76.43;102429.16;5035670;28;45493;-71
2021/10/23 06:40:43;;;;;;;;;15.75;12.25;;;;;11.84;76.52;102430.84;5034391;28;59309;-71
2021/10/23 06:43:12;;;;;;;;;15.25;13.50;;;;;11.86;76.57;102433.47;5035534;28;47227;-71
2021/10/23 06:45:38;;;;;;;;;15.00;15.00;;;;;11.89;76.43;102436.03;5035067;28;45377;-71
2021/10/23 06:48:03;;;;;;;;;11.75;10.50;;;;;11.91;76.76;102439.50;5034815;28;47424;-74
2021/10/23 06:50:28;;;;;;;;;17.25;12.50;;;;;11.92;76.38;102434.22;5035124;28;45446;-70
2021/10/23 06:52:54;;;;;;;;;22.50;12.50;;;;;11.94;76.26;102439.44;5035824;28;45561;-71
2021/10/23 06:55:19;;;;;;;;;14.50;11.50;;;;;11.79;75.85;102414.25;5034675;28;46705;-71
2021/10/23 06:57:46;;;;;;;;;18.75;18.25;;;;;11.98;75.86;102438.47;5014812;28;47142;-71
2021/10/23 07:00:12;;;;;;;;;13.75;13.75;;;;;12.02;75.74;102448.06;5033300;28;45372;-72
2021/10/23 07:02:46;;;;;;;;;16.75;11.25;;;;;12.07;75.94;102458.50;5032830;28;45564;-71
2021/10/23 07:05:15;;;;;;;;;15.50;14.25;;;;;12.09;75.93;102467.22;5030351;28;45566;-71
2021/10/23 07:07:40;;;;;;;;;14.50;11.75;;;;;12.11;75.61;102463.66;5033976;28;45894;-71
2021/10/23 07:10:06;;;;;;;;;17.25;17.25;;;;;12.14;75.57;102471.50;5035162;28;45653;-71
2021/10/23 07:12:32;;;;;;;;;14.75;12.75;;;;;12.18;75.39;102469.66;5034713;28;45384;-71
2021/10/23 07:14:57;;;;;;;;;20.75;16.00;;;;;12.22;75.55;102473.97;5034772;28;45315;-71
2021/10/23 07:17:22;;;;;;;;;18.25;14.50;;;;;12.27;75.43;102480.88;5032696;28;46052;-71
2021/10/23 07:19:48;;;;;;;;;17.00;14.50;;;;;12.32;75.22;102478.16;5034784;28;46404;-71
2021/10/23 07:22:14;;;;;;;;;19.25;12.50;;;;;12.36;74.94;102487.69;5031602;28;45312;-72
2021/10/23 07:24:39;;;;;;;;;19.50;16.00;;;;;12.40;74.67;102494.66;5034689;28;45467;-71
2021/10/23 07:27:05;;;;;;;;;16.75;16.00;;;;;12.43;74.31;102491.09;5034201;28;48235;-71
2021/10/23 07:29:30;;;;;;;;;15.00;15.00;;;;;12.46;74.31;102493.63;5034529;28;45430;-71
2021/10/23 07:31:56;;;;;;;;;18.50;16.50;;;;;12.51;74.04;102503.19;5033842;28;46369;-72
2021/10/23 07:34:21;;;;;;;;;55.25;45.50;;;;;12.54;74.15;102500.47;5015644;28;45718;-72
2021/10/23 07:36:46;;;;;;;;;20.50;16.50;;;;;12.56;74.06;102503.06;5031880;28;45970;-73
2021/10/23 07:39:12;;;;;;;;;30.25;25.00;;;;;12.58;73.74;102503.03;5043268;28;45454;-72
2021/10/23 07:41:38;;;;;;;;;26.25;20.75;;;;;12.67;73.64;102513.38;5032091;28;45296;-72
2021/10/23 07:44:07;;;;;;;;;27.25;23.00;;;;;12.71;73.50;102517.69;5036261;28;45401;-73
2021/10/23 07:46:32;;;;;;;;;36.75;33.25;;;;;12.70;73.10;102511.53;5051425;28;47170;-73
2021/10/23 07:48:57;;;;;;;;;33.25;30.00;;;;;12.79;73.30;102521.88;5020101;28;46067;-72
2021/10/23 07:51:23;;;;;;;;;29.50;26.00;;;;;12.86;72.79;102521.72;5038479;28;45426;-72
2021/10/23 07:53:50;;;;;;;;;34.75;26.00;;;;;12.91;72.59;102526.00;5038818;28;45496;-72
2021/10/23 07:56:16;;;;;;;;;27.00;24.75;;;;;12.97;72.98;102515.28;5038084;28;45404;-72
2021/10/23 07:58:41;;;;;;;;;18.00;16.25;;;;;13.10;72.47;102530.81;5035122;28;45395;-73
2021/10/23 08:01:06;;;;;;;;;20.25;16.75;;;;;13.16;72.14;102531.53;5039574;28;45576;-72
2021/10/23 08:03:32;;;;;;;;;16.50;15.75;;;;;13.20;71.74;102530.53;5020785;28;45432;-72
2021/10/23 08:05:57;;;;;;;;;18.75;14.25;;;;;13.21;71.79;102524.41;5039083;28;46061;-72
2021/10/23 08:08:22;;;;;;;;;17.25;13.25;;;;;13.30;70.85;102529.44;5037460;28;47436;-72
2021/10/23 08:10:47;;;;;;;;;18.67;14.33;;;;;13.35;71.20;102528.44;5034061;28;53871;-72
2021/10/23 08:13:13;;;;;;;;;21.00;16.50;;;;;13.43;70.79;102539.69;5033538;28;45603;-72
2021/10/23 08:15:38;;;;;;;;;15.00;13.75;;;;;13.48;70.62;102529.88;5033741;28;45374;-72
2021/10/23 08:18:04;;;;;;;;;19.75;17.50;;;;;13.46;70.41;102526.38;5033249;28;45400;-72
2021/10/23 08:20:31;;;;;;;;;17.75;15.00;;;;;13.60;70.27;102537.47;5032738;28;45466;-72
2021/10/23 08:22:57;;;;;;;;;18.25;15.00;;;;;13.49;70.44;102497.28;5034183;28;45411;-72
2021/10/23 08:25:22;;;;;;;;;17.25;15.50;;;;;13.78;70.14;102526.41;5032513;28;45435;-71
2021/10/23 08:27:48;;;;;;;;;22.00;17.50;;;;;13.77;70.17;102500.88;5033153;28;45523;-72
2021/10/23 08:30:16;;;;;;;;;20.50;15.00;;;;;14.05;69.83;102530.03;5033381;28;45628;-72
2021/10/23 08:32:43;;;;;;;;;19.25;17.25;;;;;14.14;69.63;102528.03;5031868;28;45525;-73
2021/10/23 08:35:09;;;;;;;;;18.50;15.00;;;;;14.19;69.31;102515.53;5031191;28;45532;-71
2021/10/23 08:37:36;;;;;;;;;18.00;16.50;;;;;14.28;69.19;102528.50;5032908;28;45441;-72
2021/10/23 08:40:04;;;;;;;;;58.00;45.75;;;;;14.45;68.56;102531.50;5033021;28;45459;-72
2021/10/23 08:42:30;;;;;;;;;26.50;21.50;;;;;14.58;67.80;102532.88;5031247;28;45507;-71
2021/10/23 08:45:03;;;;;;;;;21.25;18.00;;;;;14.64;67.99;102520.38;5032593;28;45605;-71
2021/10/23 08:47:29;;;;;;;;;20.50;18.00;;;;;14.74;67.33;102527.13;5032285;28;47290;-73
2021/10/23 08:49:59;;;;;;;;;20.75;16.75;;;;;14.75;67.40;102524.41;5033840;28;45635;-69
2021/10/23 08:52:28;;;;;;;;;13.00;11.25;;;;;14.86;66.80;102529.38;5031925;28;45592;-69
2021/10/23 08:54:54;;;;;;;;;20.00;17.00;;;;;14.96;66.33;102536.09;5033521;28;45501;-69
2021/10/23 08:57:23;;;;;;;;;20.75;15.75;;;;;14.97;66.38;102521.06;5033096;28;45569;-70
2021/10/23 08:59:49;;;;;;;;;22.25;15.25;;;;;15.10;66.33;102522.41;5032811;28;45856;-70
2021/10/23 09:02:14;;;;;;;;;24.00;17.00;;;;;15.34;65.69;102533.94;5014913;28;45874;-70
2021/10/23 09:04:40;;;;;;;;;21.00;18.50;;;;;15.43;65.39;102522.16;5033524;28;45460;-70
2021/10/23 09:07:11;;;;;;;;;22.75;18.00;;;;;15.62;65.40;102533.88;5033778;28;45379;-71
2021/10/23 09:09:47;;;;;;;;;61.50;49.00;;;;;15.69;64.66;102532.75;5033485;28;45558;-69
2021/10/23 09:12:25;;;;;;;;;19.25;16.50;;;;;15.78;64.04;102534.22;5014273;28;45449;-70
2021/10/23 09:14:59;;;;;;;;;22.00;17.50;;;;;15.93;64.21;102538.97;5033347;28;46397;-70
2021/10/23 09:17:25;;;;;;;;;22.50;18.50;;;;;16.04;64.37;102528.81;5014700;28;45828;-70
2021/10/23 09:19:51;;;;;;;;;24.00;20.00;;;;;16.12;63.98;102531.16;5033255;28;45391;-70
2021/10/23 09:22:34;;;;;;;;;17.00;16.00;;;;;16.17;63.73;102522.09;5034710;28;45545;-70
2021/10/23 09:25:22;;;;;;;;;24.50;20.25;;;;;16.15;63.09;102529.28;5032558;28;46494;-72
2021/10/23 09:28:04;;;;;;;;;24.00;19.50;;;;;16.18;63.16;102528.28;5031631;28;45653;-71
2021/10/23 09:30:31;;;;;;;;;19.75;17.25;;;;;16.27;62.67;102535.91;5033115;28;45336;-72
2021/10/23 09:33:13;;;;;;;;;19.25;17.25;;;;;16.30;62.53;102527.84;5039292;28;45286;-71
2021/10/23 09:35:44;;;;;;;;;16.75;15.00;;;;;16.45;62.62;102523.72;5032777;28;45476;-72
2021/10/23 09:38:11;;;;;;;;;17.50;17.50;;;;;16.58;62.17;102530.25;5033133;28;45411;-71
2021/10/23 09:40:38;;;;;;;;;18.00;16.00;;;;;16.66;61.85;102530.84;5033454;28;45441;-72
2021/10/23 09:43:16;;;;;;;;;21.00;17.00;;;;;16.82;61.51;102525.81;5034029;28;45454;-72
2021/10/23 09:46:00;;;;;;;;;21.25;18.00;;;;;17.01;61.58;102528.56;5033142;28;45685;-70
2021/10/23 09:48:40;;;;;;;;;18.75;15.50;;;;;17.20;60.91;102529.53;5032632;28;45977;-69
2021/10/23 09:51:10;;;;;;;;;17.25;15.50;;;;;17.40;61.27;102522.50;5032487;28;45526;-73
2021/10/23 09:53:36;;;;;;;;;23.00;21.75;;;;;17.58;60.76;102527.00;5033067;28;45392;-72
2021/10/23 09:56:06;;;;;;;;;22.00;17.75;;;;;17.73;60.26;102523.69;5032500;28;45997;-70
2021/10/23 09:58:32;;;;;;;;;19.00;17.00;;;;;17.88;59.68;102519.50;5033393;28;46105;-73
2021/10/23 10:00:57;;;;;;;;;18.50;16.00;;;;;18.00;60.01;102521.59;5032621;28;45404;-73
2021/10/23 10:03:24;;;;;;;;;18.25;14.00;;;;;17.99;58.45;102517.19;5032583;28;54384;-73
2021/10/23 10:05:54;;;;;;;;;15.75;14.00;;;;;18.03;58.53;102504.63;5035390;28;46003;-73
2021/10/23 10:08:22;;;;;;;;;21.00;16.75;;;;;18.18;58.22;102511.91;5035295;28;45467;-72
2021/10/23 10:10:48;;;;;;;;;18.00;17.75;;;;;18.24;57.80;102521.41;5028312;28;45365;-72
2021/10/23 10:13:17;;;;;;;;;20.25;18.50;;;;;18.30;58.29;102515.78;5036437;28;45328;-71
2021/10/23 10:15:44;;;;;;;;;18.00;15.00;;;;;18.43;57.60;102527.59;5036002;28;45976;-73
2021/10/23 10:18:10;;;;;;;;;138.75;116.75;;;;;18.45;57.93;102519.53;5036061;28;45827;-72
2021/10/23 10:20:37;;;;;;;;;26.25;19.25;;;;;18.54;58.17;102523.56;5037642;28;47539;-72
2021/10/23 10:23:10;;;;;;;;;17.75;15.50;;;;;18.59;57.64;102505.56;5036427;28;45356;-70
2021/10/23 10:25:35;;;;;;;;;23.75;14.25;;;;;18.94;56.73;102522.47;5035209;28;45513;-71
2021/10/23 10:28:12;;;;;;;;;19.00;17.75;;;;;19.43;57.05;102515.53;5034039;28;45400;-71
2021/10/23 10:30:40;;;;;;;;;20.00;17.00;;;;;20.33;56.53;102516.03;5035458;28;45468;-71
2021/10/23 10:33:21;;;;;;;;;13.75;13.00;;;;;21.03;55.46;102511.13;5036129;28;45571;-72
2021/10/23 10:44:15;;;;;;;;;15.25;13.50;;;;;23.49;50.22;102505.25;5020184;28;45861;-72
2021/10/23 10:47:04;;;;;;;;;18.25;13.25;;;;;23.82;50.89;102515.47;5035204;28;46032;-72
2021/10/23 10:49:52;;;;;;;;;11.00;11.00;;;;;23.94;48.83;102517.28;5033516;28;45910;-72
2021/10/23 10:52:40;;;;;;;;;10.25;9.50;;;;;23.84;47.94;102515.34;5032598;28;45443;-72
2021/10/23 10:55:12;;;;;;;;;13.00;11.25;;;;;23.35;48.27;102519.63;5034562;28;45471;-73
2021/10/23 10:57:57;;;;;;;;;11.75;9.75;;;;;22.85;47.91;102506.91;5035502;28;45352;-73
2021/10/23 11:00:43;;;;;;;;;7.25;7.25;;;;;22.67;48.80;102498.28;5034607;28;45789;-73
2021/10/23 11:03:47;;;;;;;;;15.25;10.25;;;;;22.64;48.10;102504.69;5035239;28;45502;-73
2021/10/23 11:06:28;;;;;;;;;14.75;12.00;;;;;22.60;48.53;102499.63;5035502;28;45495;-73
2021/10/23 11:09:12;;;;;;;;;12.00;10.00;;;;;22.52;48.02;102500.16;5034579;28;45305;-72
2021/10/23 11:14:21;;;;;;;;;8.75;7.00;;;;;22.52;48.06;102497.47;5048146;28;45447;-72
2021/10/23 11:17:00;;;;;;;;;7.75;6.25;;;;;22.38;48.01;102490.31;5033937;28;45572;-73
2021/10/23 11:19:33;;;;;;;;;3.25;2.50;;;;;22.22;46.93;102491.44;5031237;28;46183;-72
2021/10/23 11:22:02;;;;;;;;;6.25;2.50;;;;;22.14;47.46;102483.91;5032563;28;45800;-72
2021/10/23 11:24:29;;;;;;;;;5.00;2.00;;;;;22.01;46.73;102477.56;5033585;28;45637;-73